createdAt,value
2018-02-01T00:02:21.733Z,1.45
2018-02-01T00:04:50.066Z,2.50
2018-02-01T00:07:18.378Z,1.90
2018-02-01T00:09:46.714Z,1.60
2018-02-01T00:12:15.026Z,1.67
2018-02-01T00:14:43.393Z,1.77
2018-02-01T00:17:11.674Z,1.92
2018-02-01T00:19:40.008Z,1.60
2018-02-01T00:22:08.314Z,1.80
2018-02-01T00:24:36.645Z,2.12
2018-02-01T00:27:04.961Z,1.90
2018-02-01T00:29:33.288Z,2.35
2018-02-01T00:32:01.599Z,1.80
2018-02-01T00:34:29.929Z,2.00
2018-02-01T00:36:58.241Z,2.42
2018-02-01T00:39:26.578Z,2.25
2018-02-01T00:41:54.881Z,2.00
2018-02-01T00:44:23.212Z,2.65
2018-02-01T00:46:51.518Z,2.25
2018-02-01T00:49:19.858Z,2.75
2018-02-01T00:51:48.169Z,2.97
2018-02-01T00:54:16.493Z,2.15
2018-02-01T00:56:44.809Z,3.10
2018-02-01T00:59:13.149Z,2.15
2018-02-01T01:01:41.463Z,3.22
2018-02-01T01:04:09.782Z,2.75
2018-02-01T01:06:38.113Z,4.35
2018-02-01T01:09:06.425Z,3.08
2018-02-01T01:11:34.762Z,3.97
2018-02-01T01:14:03.077Z,4.07
2018-02-01T01:16:31.411Z,4.55
2018-02-01T01:18:59.721Z,4.78
2018-02-01T01:21:28.059Z,5.37
2018-02-01T01:23:56.381Z,4.87
2018-02-01T01:26:24.718Z,4.12
2018-02-01T01:28:53.034Z,4.95
2018-02-01T01:31:21.365Z,5.32
2018-02-01T01:33:49.682Z,5.22
2018-02-01T01:36:18.022Z,5.45
2018-02-01T01:38:46.337Z,5.10
2018-02-01T01:41:14.682Z,6.32
2018-02-01T01:43:42.994Z,4.70
2018-02-01T01:46:11.330Z,4.68
2018-02-01T01:48:39.637Z,5.82
2018-02-01T01:51:07.973Z,5.68
2018-02-01T01:53:36.289Z,5.12
2018-02-01T01:56:04.625Z,4.87
2018-02-01T01:58:32.944Z,6.07
2018-02-01T02:01:01.273Z,4.10
2018-02-01T02:03:29.590Z,5.18
2018-02-01T02:05:57.914Z,5.20
2018-02-01T02:08:26.230Z,5.00
2018-02-01T02:10:54.565Z,5.75
2018-02-01T02:13:22.882Z,5.07
2018-02-01T02:15:51.225Z,6.12
2018-02-01T02:18:19.534Z,6.12
2018-02-01T02:20:47.874Z,5.40
2018-02-01T02:23:16.182Z,7.03
2018-02-01T02:25:44.517Z,6.75
2018-02-01T02:28:12.834Z,6.25
2018-02-01T02:30:41.173Z,6.80
2018-02-01T02:33:09.494Z,6.70
2018-02-01T02:35:38.162Z,8.70
2018-02-01T02:38:07.370Z,8.00
2018-02-01T02:40:35.709Z,7.72
2018-02-01T02:43:04.050Z,7.90
2018-02-01T02:45:32.362Z,8.68
2018-02-01T02:48:00.678Z,8.63
2018-02-01T02:50:29.018Z,9.02
2018-02-01T02:52:57.329Z,8.73
2018-02-01T02:55:25.669Z,11.20
2018-02-01T02:57:53.985Z,9.75
2018-02-01T03:00:22.325Z,10.40
2018-02-01T03:02:50.642Z,8.80
2018-02-01T03:05:18.958Z,9.32
2018-02-01T03:07:47.293Z,9.40
2018-02-01T03:10:15.611Z,10.10
2018-02-01T03:12:43.949Z,8.95
2018-02-01T03:15:12.266Z,10.90
2018-02-01T03:17:40.605Z,10.23
2018-02-01T03:20:08.918Z,9.48
2018-02-01T03:22:37.253Z,7.87
2018-02-01T03:25:05.573Z,10.18
2018-02-01T03:27:33.907Z,8.88
2018-02-01T03:30:02.222Z,8.32
2018-02-01T03:32:30.558Z,8.65
2018-02-01T03:34:58.875Z,8.52
2018-02-01T03:37:27.213Z,8.23
2018-02-01T03:39:55.525Z,8.90
2018-02-01T03:42:23.857Z,8.82
2018-02-01T03:44:52.177Z,10.20
2018-02-01T03:47:20.522Z,10.52
2018-02-01T03:49:48.843Z,8.80
2018-02-01T03:52:17.177Z,7.80
2018-02-01T03:54:45.494Z,8.70
2018-02-01T03:57:13.838Z,10.52
2018-02-01T03:59:42.154Z,9.82
2018-02-01T04:02:10.485Z,8.73
2018-02-01T04:04:38.802Z,8.93
2018-02-01T04:07:07.141Z,10.63
2018-02-01T04:09:35.468Z,10.70
2018-02-01T04:12:03.807Z,10.40
2018-02-01T04:14:32.122Z,8.15
2018-02-01T04:17:00.464Z,8.70
2018-02-01T04:19:28.778Z,9.43
2018-02-01T04:21:57.113Z,10.48
2018-02-01T04:24:25.437Z,10.70
2018-02-01T04:26:53.787Z,10.65
2018-02-01T04:29:22.102Z,9.70
2018-02-01T04:31:50.437Z,9.27
2018-02-01T04:34:18.759Z,10.60
2018-02-01T04:36:47.104Z,10.40
2018-02-01T04:39:15.417Z,9.27
2018-02-01T04:41:43.758Z,10.18
2018-02-01T04:44:12.078Z,11.18
2018-02-01T04:46:40.421Z,12.00
2018-02-01T04:49:08.742Z,10.73
2018-02-01T04:51:37.085Z,11.20
2018-02-01T04:54:05.406Z,11.80
2018-02-01T04:56:33.751Z,10.65
2018-02-01T04:59:02.082Z,10.77
2018-02-01T05:01:30.421Z,12.90
2018-02-01T05:03:58.742Z,11.70
2018-02-01T05:06:27.059Z,11.07
2018-02-01T05:08:55.397Z,14.48
2018-02-01T05:11:23.719Z,12.05
2018-02-01T05:13:52.058Z,11.85
2018-02-01T05:16:20.377Z,10.88
2018-02-01T05:18:48.714Z,11.77
2018-02-01T05:21:17.029Z,10.50
2018-02-01T05:23:45.373Z,11.38
2018-02-01T05:26:13.694Z,11.32
2018-02-01T05:28:42.038Z,11.12
2018-02-01T05:31:10.361Z,11.05
2018-02-01T05:33:38.709Z,11.65
2018-02-01T05:36:07.026Z,12.63
2018-02-01T05:38:35.373Z,11.80
2018-02-01T05:41:03.705Z,11.70
2018-02-01T05:43:32.059Z,11.12
2018-02-01T05:46:01.479Z,10.40
2018-02-01T05:48:29.974Z,11.33
2018-02-01T05:50:58.318Z,11.30
2018-02-01T05:53:26.653Z,10.83
2018-02-01T05:55:54.977Z,10.20
2018-02-01T05:58:23.333Z,12.30
2018-02-01T06:00:51.640Z,11.93
2018-02-01T06:03:19.981Z,12.03
2018-02-01T06:05:48.313Z,11.90
2018-02-01T06:08:17.445Z,11.60
2018-02-01T06:10:45.766Z,9.75
2018-02-01T06:13:14.846Z,10.70
2018-02-01T06:15:44.279Z,9.80
2018-02-01T06:18:19.827Z,9.65
2018-02-01T06:20:58.492Z,10.30
2018-02-01T06:23:41.321Z,9.03
2018-02-01T06:26:12.186Z,10.50
2018-02-01T06:28:40.808Z,10.10
2018-02-01T06:31:09.116Z,9.50
2018-02-01T06:33:37.458Z,9.20
2018-02-01T06:36:05.779Z,9.20
2018-02-01T06:38:34.114Z,9.53
2018-02-01T06:41:02.438Z,10.05
2018-02-01T06:43:30.778Z,10.32
2018-02-01T06:45:59.181Z,9.27
2018-02-01T06:48:27.521Z,12.33
2018-02-01T06:50:55.841Z,10.47
2018-02-01T06:53:24.246Z,9.07
2018-02-01T06:55:53.509Z,7.33
2018-02-01T06:58:21.847Z,9.23
2018-02-01T07:00:54.016Z,8.70
2018-02-01T07:03:22.354Z,7.60
2018-02-01T07:05:50.673Z,7.53
2018-02-01T07:08:19.014Z,8.68
2018-02-01T07:10:47.330Z,8.13
2018-02-01T07:13:15.673Z,7.27
2018-02-01T07:15:43.994Z,7.07
2018-02-01T07:18:12.342Z,7.23
2018-02-01T07:20:42.614Z,7.82
2018-02-01T07:23:10.958Z,8.00
2018-02-01T07:25:39.276Z,7.85
2018-02-01T07:28:07.618Z,6.97
2018-02-01T07:30:35.937Z,6.20
2018-02-01T07:33:04.278Z,6.10
2018-02-01T07:35:32.593Z,7.18
2018-02-01T07:38:00.932Z,6.57
2018-02-01T07:40:29.246Z,6.10
2018-02-01T07:42:57.590Z,6.97
2018-02-01T07:45:35.810Z,6.87
2018-02-01T07:48:04.171Z,7.40
2018-02-01T07:50:32.502Z,5.93
2018-02-01T07:53:00.801Z,5.03
2018-02-01T07:55:29.147Z,7.32
2018-02-01T07:57:57.462Z,5.97
2018-02-01T08:00:25.802Z,6.68
2018-02-01T08:02:54.127Z,7.50
2018-02-01T08:05:22.458Z,6.17
2018-02-01T08:07:50.778Z,6.70
2018-02-01T08:10:19.126Z,5.47
2018-02-01T08:12:47.442Z,8.17
2018-02-01T08:15:15.777Z,6.37
2018-02-01T08:17:44.094Z,6.50
2018-02-01T08:20:12.436Z,6.67
2018-02-01T08:22:40.753Z,6.90
2018-02-01T08:25:09.102Z,6.97
2018-02-01T08:27:37.417Z,6.03
2018-02-01T08:30:05.763Z,7.50
2018-02-01T08:32:34.085Z,5.60
2018-02-01T08:35:02.418Z,8.07
2018-02-01T08:37:30.742Z,7.47
2018-02-01T08:39:59.078Z,6.43
2018-02-01T08:42:27.397Z,7.50
2018-02-01T08:44:55.737Z,6.80
2018-02-01T08:47:24.049Z,7.95
2018-02-01T08:49:52.385Z,6.75
2018-02-01T08:52:20.711Z,8.87
2018-02-01T08:54:49.037Z,8.13
2018-02-01T08:57:17.481Z,5.57
2018-02-01T08:59:45.819Z,6.97
2018-02-01T09:02:14.133Z,6.53
2018-02-01T09:04:42.469Z,6.47
2018-02-01T09:07:10.791Z,7.43
2018-02-01T09:09:39.121Z,8.35
2018-02-01T09:12:07.443Z,8.52
2018-02-01T09:14:35.784Z,7.63
2018-02-01T09:17:04.093Z,7.10
2018-02-01T09:19:32.460Z,7.30
2018-02-01T09:22:00.757Z,5.75
2018-02-01T09:24:29.097Z,5.80
2018-02-01T09:26:57.613Z,6.70
2018-02-01T09:29:25.958Z,6.50
2018-02-01T09:31:54.453Z,6.37
2018-02-01T09:34:23.015Z,6.07
2018-02-01T09:36:51.817Z,5.90
2018-02-01T09:39:20.165Z,6.37
2018-02-01T09:41:48.486Z,8.07
2018-02-01T09:44:16.982Z,5.32
2018-02-01T09:46:45.283Z,5.70
2018-02-01T09:49:13.697Z,4.83
2018-02-01T09:51:42.017Z,6.82
2018-02-01T09:54:10.341Z,6.03
2018-02-01T09:56:38.674Z,4.77
2018-02-01T09:59:07.002Z,5.03
2018-02-01T10:01:35.344Z,4.97
2018-02-01T10:04:03.657Z,4.73
2018-02-01T10:06:32.006Z,5.35
2018-02-01T10:09:00.366Z,4.53
2018-02-01T10:11:28.700Z,5.97
2018-02-01T10:13:57.035Z,5.07
2018-02-01T10:16:25.417Z,5.60
2018-02-01T10:18:54.221Z,5.32
2018-02-01T10:21:22.554Z,4.50
2018-02-01T10:23:50.874Z,5.07
2018-02-01T10:26:19.217Z,4.60
2018-02-01T10:28:47.533Z,4.75
2018-02-01T10:31:15.873Z,4.87
2018-02-01T10:33:44.190Z,4.90
2018-02-01T10:36:12.530Z,3.80
2018-02-01T10:38:40.844Z,3.93
2018-02-01T10:41:10.087Z,3.62
2018-02-01T10:43:38.401Z,4.47
2018-02-01T10:46:07.661Z,4.07
2018-02-01T10:48:36.147Z,4.40
2018-02-01T10:51:04.514Z,4.90
2018-02-01T10:53:32.884Z,3.30
2018-02-01T10:56:01.217Z,3.97
2018-02-01T10:58:29.530Z,3.73
2018-02-01T11:00:57.870Z,3.30
2018-02-01T11:03:26.202Z,2.90
2018-02-01T11:05:54.534Z,4.53
2018-02-01T11:08:22.853Z,3.47
2018-02-01T11:10:51.194Z,3.05
2018-02-01T11:13:19.570Z,2.90
2018-02-01T11:15:47.905Z,4.43
2018-02-01T11:18:16.225Z,3.13
2018-02-01T11:20:44.623Z,3.40
2018-02-01T11:23:12.934Z,4.30
2018-02-01T11:25:42.210Z,3.67
2018-02-01T11:28:10.534Z,3.47
2018-02-01T11:30:38.903Z,2.27
2018-02-01T11:33:07.222Z,4.03
2018-02-01T11:35:35.562Z,3.67
2018-02-01T11:38:03.881Z,2.60
2018-02-01T11:40:32.242Z,3.07
2018-02-01T11:43:00.595Z,2.93
2018-02-01T11:45:28.943Z,2.95
2018-02-01T11:47:57.256Z,2.87
2018-02-01T11:50:25.594Z,5.17
2018-02-01T11:52:53.913Z,2.40
2018-02-01T11:55:22.249Z,2.50
2018-02-01T11:57:50.566Z,2.23
2018-02-01T12:00:18.886Z,3.13
2018-02-01T12:02:47.227Z,4.23
2018-02-01T12:05:15.547Z,2.40
2018-02-01T12:07:43.886Z,2.35
2018-02-01T12:10:12.317Z,2.23
2018-02-01T12:12:41.559Z,2.30
2018-02-01T12:15:09.873Z,2.35
2018-02-01T12:17:38.222Z,2.80
2018-02-01T12:20:06.542Z,2.47
2018-02-01T12:22:34.886Z,1.97
2018-02-01T12:25:03.214Z,1.77
2018-02-01T12:27:31.537Z,1.92
2018-02-01T12:29:59.870Z,2.30
2018-02-01T12:32:28.205Z,1.93
2018-02-01T12:34:56.517Z,2.60
2018-02-01T12:37:24.853Z,1.33
2018-02-01T12:39:53.214Z,2.40
2018-02-01T12:42:21.553Z,2.10
2018-02-01T12:44:49.925Z,2.50
2018-02-01T12:47:18.280Z,2.00
2018-02-01T12:49:46.599Z,2.30
2018-02-01T12:52:14.934Z,2.40
2018-02-01T12:54:43.253Z,2.20
2018-02-01T12:57:11.586Z,2.50
2018-02-01T12:59:39.931Z,2.33
2018-02-01T13:02:08.265Z,2.35
2018-02-01T13:04:36.577Z,2.53
2018-02-01T13:07:04.909Z,2.70
2018-02-01T13:09:33.222Z,2.17
2018-02-01T13:12:01.548Z,3.20
2018-02-01T13:14:29.857Z,2.17
2018-02-01T13:16:58.193Z,3.03
2018-02-01T13:19:26.513Z,1.80
2018-02-01T13:21:54.850Z,2.22
2018-02-01T13:24:23.158Z,2.30
2018-02-01T13:26:51.506Z,2.30
2018-02-01T13:29:21.132Z,2.80
2018-02-01T13:31:49.656Z,2.90
2018-02-01T13:34:18.148Z,2.67
2018-02-01T13:36:49.681Z,2.30
2018-02-01T13:39:19.603Z,2.50
2018-02-01T13:41:50.795Z,2.40
2018-02-01T13:44:23.182Z,2.53
2018-02-01T13:46:53.132Z,2.80
2018-02-01T13:49:23.202Z,3.05
2018-02-01T13:51:51.597Z,2.70
2018-02-01T13:54:19.934Z,2.75
2018-02-01T13:56:48.279Z,2.40
2018-02-01T13:59:16.885Z,2.60
2018-02-01T14:01:45.375Z,2.80
2018-02-01T14:04:13.966Z,3.50
2018-02-01T14:06:42.587Z,3.80
2018-02-01T14:09:12.381Z,3.40
2018-02-01T14:11:41.009Z,3.53
2018-02-01T14:14:11.006Z,4.30
2018-02-01T14:16:42.768Z,3.40
2018-02-01T14:19:11.459Z,3.30
2018-02-01T14:21:40.038Z,3.80
2018-02-01T14:24:08.588Z,3.43
2018-02-01T14:26:36.942Z,4.20
2018-02-01T14:29:05.509Z,3.70
2018-02-01T14:31:34.174Z,3.20
2018-02-01T14:34:02.664Z,3.23
2018-02-01T14:36:31.213Z,3.20
2018-02-01T14:38:59.832Z,3.47
2018-02-01T14:41:28.210Z,4.10
2018-02-01T14:43:56.585Z,3.33
2018-02-01T14:46:25.027Z,4.40
2018-02-01T14:48:53.435Z,4.10
2018-02-01T14:51:21.915Z,4.70
2018-02-01T14:53:51.771Z,3.53
2018-02-01T14:56:23.046Z,3.22
2018-02-01T14:58:52.585Z,3.85
2018-02-01T15:01:20.922Z,3.50
2018-02-01T15:03:49.253Z,4.30
2018-02-01T15:06:17.579Z,4.05
2018-02-01T15:08:45.911Z,3.60
2018-02-01T15:11:14.226Z,3.77
2018-02-01T15:13:42.565Z,5.60
2018-02-01T15:16:11.777Z,3.20
2018-02-01T15:18:40.110Z,3.15
2018-02-01T15:21:08.421Z,3.70
2018-02-01T15:23:36.761Z,3.80
2018-02-01T15:26:06.004Z,3.43
2018-02-01T15:28:34.341Z,2.70
2018-02-01T15:31:02.755Z,3.87
2018-02-01T15:33:31.093Z,3.43
2018-02-01T15:35:59.401Z,3.58
2018-02-01T15:38:27.741Z,3.22
2018-02-01T15:40:56.049Z,3.20
2018-02-01T15:43:24.385Z,3.60
2018-02-01T15:45:52.706Z,3.17
2018-02-01T15:48:21.053Z,2.93
2018-02-01T15:50:49.361Z,2.65
2018-02-01T15:53:17.702Z,3.70
2018-02-01T15:55:46.905Z,2.43
2018-02-01T15:58:15.244Z,2.80
2018-02-01T16:00:43.562Z,3.57
2018-02-01T16:03:11.898Z,3.17
2018-02-01T16:05:40.213Z,3.43
2018-02-01T16:08:08.541Z,3.13
2018-02-01T16:10:36.889Z,4.23
2018-02-01T16:13:05.209Z,3.90
2018-02-01T16:15:33.531Z,4.32
2018-02-01T16:18:01.866Z,5.27
2018-02-01T16:20:30.182Z,4.93
2018-02-01T16:22:58.521Z,4.93
2018-02-01T16:25:27.141Z,4.78
2018-02-01T16:27:55.498Z,5.47
2018-02-01T16:30:23.825Z,5.10
2018-02-01T16:32:52.139Z,5.07
2018-02-01T16:35:20.477Z,4.07
2018-02-01T16:37:48.794Z,4.37
2018-02-01T16:40:17.134Z,5.87
2018-02-01T16:42:45.443Z,4.93
2018-02-01T16:45:14.066Z,4.78
2018-02-01T16:47:42.377Z,5.20
2018-02-01T16:50:10.705Z,5.30
2018-02-01T16:52:39.021Z,5.30
2018-02-01T16:55:07.361Z,3.92
2018-02-01T16:57:35.716Z,4.40
2018-02-01T17:00:04.027Z,4.10
2018-02-01T17:02:32.401Z,3.93
2018-02-01T17:05:01.697Z,4.00
2018-02-01T17:07:30.019Z,5.93
2018-02-01T17:09:58.357Z,4.47
2018-02-01T17:12:26.664Z,3.85
2018-02-01T17:14:55.003Z,3.40
2018-02-01T17:17:23.313Z,3.95
2018-02-01T17:19:51.650Z,3.30
2018-02-01T17:22:19.953Z,2.40
2018-02-01T17:24:48.401Z,3.12
2018-02-01T17:27:16.786Z,3.00
2018-02-01T17:29:45.093Z,2.73
2018-02-01T17:32:13.405Z,3.28
2018-02-01T17:34:41.738Z,3.30
2018-02-01T17:37:10.046Z,3.20
2018-02-01T17:39:38.377Z,3.87
2018-02-01T17:42:06.682Z,3.07
2018-02-01T17:44:36.023Z,3.18
2018-02-01T17:47:04.329Z,2.90
2018-02-01T17:49:32.665Z,3.00
2018-02-01T17:52:01.009Z,4.78
2018-02-01T17:54:29.313Z,3.13
2018-02-01T17:56:57.626Z,3.30
2018-02-01T17:59:25.965Z,3.70
2018-02-01T18:01:54.277Z,3.43
2018-02-01T18:04:22.945Z,4.15
2018-02-01T18:06:51.254Z,4.13
2018-02-01T18:09:19.592Z,3.77
2018-02-01T18:11:47.893Z,4.37
2018-02-01T18:14:16.222Z,5.27
2018-02-01T18:16:44.530Z,7.00
2018-02-01T18:19:12.861Z,6.60
2018-02-01T18:21:41.182Z,7.07
2018-02-01T18:24:09.513Z,7.55
2018-02-01T18:26:37.832Z,8.57
2018-02-01T18:29:06.174Z,10.13
2018-02-01T18:31:34.489Z,8.57
2018-02-01T18:34:02.801Z,8.23
2018-02-01T18:36:31.141Z,8.33
2018-02-01T18:38:59.458Z,8.70
2018-02-01T18:41:27.793Z,7.63
2018-02-01T18:43:56.101Z,8.63
2018-02-01T18:46:24.447Z,8.67
2018-02-01T18:48:52.765Z,10.50
2018-02-01T18:51:21.101Z,9.33
2018-02-01T18:53:49.422Z,10.32
2018-02-01T18:56:18.698Z,11.48
2018-02-01T18:58:47.021Z,12.05
2018-02-01T19:01:15.361Z,10.40
2018-02-01T19:03:43.676Z,11.10
2018-02-01T19:06:12.018Z,10.77
2018-02-01T19:08:40.337Z,10.75
2018-02-01T19:11:08.681Z,10.43
2018-02-01T19:13:37.001Z,8.50
2018-02-01T19:16:05.341Z,8.77
2018-02-01T19:18:33.665Z,10.47
2018-02-01T19:21:02.110Z,9.27
2018-02-01T19:23:30.397Z,8.83
2018-02-01T19:25:59.625Z,9.50
2018-02-01T19:28:27.941Z,8.45
2018-02-01T19:30:56.329Z,10.20
2018-02-01T19:33:24.630Z,7.70
2018-02-01T19:35:52.961Z,9.67
2018-02-01T19:38:21.282Z,8.63
2018-02-01T19:40:49.741Z,8.50
2018-02-01T19:43:18.045Z,8.43
2018-02-01T19:45:47.358Z,8.33
2018-02-01T19:48:15.693Z,8.10
2018-02-01T19:50:44.034Z,8.25
2018-02-01T19:53:12.346Z,8.97
2018-02-01T19:55:41.721Z,9.50
2018-02-01T19:58:10.030Z,9.73
2018-02-01T20:00:38.369Z,8.38
2018-02-01T20:03:06.992Z,10.02
2018-02-01T20:05:35.329Z,11.50
2018-02-01T20:08:03.650Z,10.17
2018-02-01T20:10:31.990Z,11.40
2018-02-01T20:13:00.310Z,10.63
2018-02-01T20:15:28.650Z,10.37
2018-02-01T20:17:56.981Z,10.10
2018-02-01T20:20:25.317Z,8.97
2018-02-01T20:22:53.686Z,10.35
2018-02-01T20:25:21.985Z,10.67
2018-02-01T20:27:50.364Z,10.27
2018-02-01T20:30:18.685Z,10.67
2018-02-01T20:32:47.019Z,9.40
2018-02-01T20:35:15.349Z,11.10
2018-02-01T20:37:43.673Z,10.17
2018-02-01T20:40:11.993Z,11.67
2018-02-01T20:42:40.342Z,12.32
2018-02-01T20:45:08.661Z,10.93
2018-02-01T20:47:37.013Z,12.03
2018-02-01T20:50:05.337Z,12.07
2018-02-01T20:52:33.683Z,11.38
2018-02-01T20:55:02.015Z,12.20
2018-02-01T20:57:30.357Z,11.37
2018-02-01T20:59:58.678Z,13.20
2018-02-01T21:02:27.021Z,11.98
2018-02-01T21:04:55.353Z,11.90
2018-02-01T21:07:23.695Z,11.90
2018-02-01T21:09:52.013Z,12.03
2018-02-01T21:12:20.357Z,11.90
2018-02-01T21:14:48.678Z,11.75
2018-02-01T21:17:17.050Z,12.90
2018-02-01T21:19:45.369Z,13.60
2018-02-01T21:22:13.709Z,11.50
2018-02-01T21:24:42.033Z,12.60
2018-02-01T21:27:10.423Z,13.03
2018-02-01T21:29:38.737Z,12.67
2018-02-01T21:32:07.191Z,12.80
2018-02-01T21:34:35.542Z,12.73
2018-02-01T21:37:03.942Z,13.87
2018-02-01T21:39:32.257Z,12.23
2018-02-01T21:42:00.601Z,13.77
2018-02-01T21:44:28.922Z,12.35
2018-02-01T21:46:57.269Z,14.80
2018-02-01T21:49:28.312Z,13.17
2018-02-01T21:51:56.653Z,13.33
2018-02-01T21:54:24.977Z,14.10
2018-02-01T21:56:53.331Z,14.30
2018-02-01T21:59:21.633Z,13.40
2018-02-01T22:01:49.978Z,14.77
2018-02-01T22:04:18.297Z,15.10
2018-02-01T22:06:46.638Z,25.17
2018-02-01T22:09:14.953Z,14.63
2018-02-01T22:11:43.293Z,15.88
2018-02-01T22:14:11.612Z,14.13
2018-02-01T22:16:39.949Z,12.90
2018-02-01T22:19:08.273Z,16.12
2018-02-01T22:21:36.609Z,12.82
2018-02-01T22:24:04.925Z,11.63
2018-02-01T22:26:33.261Z,13.77
2018-02-01T22:29:01.581Z,14.43
2018-02-01T22:31:29.912Z,13.88
2018-02-01T22:33:58.237Z,12.95
2018-02-01T22:36:26.570Z,12.82
2018-02-01T22:38:54.887Z,13.62
2018-02-01T22:41:23.201Z,13.65
2018-02-01T22:43:51.542Z,11.95
2018-02-01T22:46:19.857Z,11.93
2018-02-01T22:48:48.192Z,14.15
2018-02-01T22:51:16.514Z,13.25
2018-02-01T22:53:44.853Z,12.82
2018-02-01T22:56:13.169Z,13.70
2018-02-01T22:58:41.501Z,14.13
2018-02-01T23:01:09.821Z,13.88
2018-02-01T23:03:38.161Z,13.43
2018-02-01T23:06:06.477Z,12.65
2018-02-01T23:08:34.818Z,13.95
2018-02-01T23:11:03.160Z,13.45
2018-02-01T23:13:31.465Z,11.43
2018-02-01T23:15:59.785Z,11.52
2018-02-01T23:18:28.125Z,14.10
2018-02-01T23:20:56.441Z,12.25
2018-02-01T23:23:24.772Z,13.50
2018-02-01T23:25:53.093Z,11.52
2018-02-01T23:28:21.458Z,11.50
2018-02-01T23:30:49.745Z,11.63
2018-02-01T23:33:18.086Z,13.98
2018-02-01T23:35:46.401Z,13.00
2018-02-01T23:38:14.737Z,14.23
2018-02-01T23:40:43.057Z,11.98
2018-02-01T23:43:11.389Z,13.32
2018-02-01T23:45:39.713Z,13.57
2018-02-01T23:48:08.054Z,12.15
2018-02-01T23:50:36.374Z,11.82
2018-02-01T23:53:04.725Z,14.73
2018-02-01T23:55:33.026Z,13.10
2018-02-01T23:58:01.366Z,13.43
